createdAt,value
2023-03-22T00:02:26.386Z,96792.31
2023-03-22T00:04:55.056Z,96778.84
2023-03-22T00:07:23.120Z,96768.34
2023-03-22T00:09:49.780Z,96745.06
2023-03-22T00:12:16.375Z,96704.81
2023-03-22T00:14:42.992Z,96702.13
2023-03-22T00:17:09.656Z,96709.78
2023-03-22T00:19:37.148Z,96716.41
2023-03-22T00:22:06.193Z,96725.59
2023-03-22T00:24:33.181Z,96718.16
2023-03-22T00:27:00.261Z,96682.06
2023-03-22T00:29:27.120Z,96658.94
2023-03-22T00:31:55.977Z,96652.94
2023-03-22T00:34:22.565Z,96618.28
2023-03-22T00:36:50.603Z,96598.75
2023-03-22T00:39:18.408Z,96601.84
2023-03-22T00:41:45.078Z,96582.13
2023-03-22T00:44:11.749Z,96549.84
2023-03-22T00:46:38.492Z,96533.09
2023-03-22T00:49:05.826Z,96513.84
2023-03-22T00:51:32.532Z,96467.91
2023-03-22T00:53:59.124Z,96449.38
2023-03-22T00:56:28.941Z,96441.97
2023-03-22T00:58:56.289Z,96426.34
2023-03-22T01:01:23.191Z,96410.88
2023-03-22T01:03:50.699Z,96405.38
2023-03-22T01:06:19.274Z,96383.72
2023-03-22T01:08:47.563Z,96353.28
2023-03-22T01:11:14.161Z,96361.41
2023-03-22T01:13:43.416Z,96348.13
2023-03-22T01:16:10.695Z,96316.78
2023-03-22T01:18:37.437Z,96304.97
2023-03-22T01:21:04.447Z,96299.91
2023-03-22T01:23:33.376Z,96270.13
2023-03-22T01:26:00.181Z,96254.41
2023-03-22T01:28:27.391Z,96246.59
2023-03-22T01:30:54.910Z,96222.81
2023-03-22T01:33:21.626Z,96194.34
2023-03-22T01:35:48.658Z,96192.78
2023-03-22T01:38:15.715Z,96165.03
2023-03-22T01:40:42.680Z,96135.53
2023-03-22T01:43:17.376Z,96125.16
2023-03-22T01:45:43.903Z,96114.03
2023-03-22T01:48:47.073Z,96080.66
2023-03-22T01:51:22.440Z,96066.91
2023-03-22T01:53:55.343Z,96047.88
2023-03-22T01:56:25.610Z,96019.06
2023-03-22T01:58:55.032Z,96003.97
2023-03-22T02:01:22.724Z,96000.56
2023-03-22T02:04:04.262Z,95989.59
2023-03-22T02:06:32.388Z,95970.81
2023-03-22T02:08:59.642Z,95958.59
2023-03-22T02:11:44.075Z,95947.81
2023-03-22T02:14:46.125Z,95927.28
2023-03-22T02:17:19.735Z,95931.63
2023-03-22T02:19:56.672Z,95901.84
2023-03-22T02:22:49.276Z,95877.06
2023-03-22T02:25:35.138Z,95881.28
2023-03-22T02:28:26.661Z,95863.22
2023-03-22T02:31:03.804Z,95838.03
2023-03-22T02:33:53.602Z,95845.28
2023-03-22T02:36:36.184Z,95826.09
2023-03-22T02:39:08.114Z,95810.53
2023-03-22T02:41:43.871Z,95824.72
2023-03-22T02:44:26.206Z,95827.66
2023-03-22T02:46:59.861Z,95812.34
2023-03-22T02:50:01.597Z,95821.66
2023-03-22T02:52:33.290Z,95833.00
2023-03-22T02:55:19.570Z,95817.28
2023-03-22T02:57:56.318Z,95815.97
2023-03-22T03:00:27.068Z,95825.75
2023-03-22T03:03:11.411Z,95805.00
2023-03-22T03:05:44.720Z,95804.91
2023-03-22T03:08:14.850Z,95798.63
2023-03-22T03:10:42.557Z,95800.25
2023-03-22T03:13:14.497Z,95782.91
2023-03-22T03:15:44.031Z,95787.94
2023-03-22T03:19:07.925Z,95782.28
2023-03-22T03:21:45.466Z,95763.03
2023-03-22T03:24:12.129Z,95778.06
2023-03-22T03:26:53.658Z,95783.34
2023-03-22T03:29:42.965Z,95767.69
2023-03-22T03:32:12.264Z,95782.56
2023-03-22T03:34:56.190Z,95771.00
2023-03-22T03:37:47.209Z,95748.16
2023-03-22T03:40:21.820Z,95755.09
2023-03-22T03:42:52.363Z,95756.91
2023-03-22T03:45:22.096Z,95731.66
2023-03-22T03:47:57.091Z,95738.50
2023-03-22T03:50:25.639Z,95744.41
2023-03-22T03:52:54.385Z,95733.69
2023-03-22T03:55:24.079Z,95727.94
2023-03-22T03:57:51.893Z,95721.81
2023-03-22T04:00:20.344Z,95720.56
2023-03-22T04:02:46.978Z,95705.66
2023-03-22T04:05:14.622Z,95711.53
2023-03-22T04:07:41.855Z,95719.69
2023-03-22T04:10:08.831Z,95700.00
2023-03-22T04:12:37.110Z,95686.56
2023-03-22T04:15:06.292Z,95687.78
2023-03-22T04:17:32.944Z,95675.19
2023-03-22T04:19:59.628Z,95669.84
2023-03-22T04:22:26.760Z,95670.41
2023-03-22T04:24:53.406Z,95671.03
2023-03-22T04:27:23.634Z,95665.16
2023-03-22T04:29:51.234Z,95660.69
2023-03-22T04:32:20.582Z,95671.53
2023-03-22T04:34:47.137Z,95664.91
2023-03-22T04:37:14.864Z,95664.94
2023-03-22T04:39:42.838Z,95673.09
2023-03-22T04:42:10.057Z,95665.75
2023-03-22T04:44:38.203Z,95652.97
2023-03-22T04:47:05.314Z,95646.19
2023-03-22T04:49:32.617Z,95644.06
2023-03-22T04:51:59.312Z,95638.28
2023-03-22T04:54:26.111Z,95624.81
2023-03-22T04:56:52.944Z,95634.91
2023-03-22T04:59:20.418Z,95629.81
2023-03-22T05:01:48.527Z,95619.38
2023-03-22T05:04:16.498Z,95621.25
2023-03-22T05:06:43.115Z,95616.94
2023-03-22T05:09:10.605Z,95613.47
2023-03-22T05:11:38.518Z,95596.56
2023-03-22T05:14:05.336Z,95606.31
2023-03-22T05:16:32.065Z,95607.69
2023-03-22T05:18:58.842Z,95594.16
2023-03-22T05:21:28.353Z,95591.13
2023-03-22T05:23:58.071Z,95597.41
2023-03-22T05:26:26.823Z,95583.31
2023-03-22T05:28:55.394Z,95573.31
2023-03-22T05:31:22.551Z,95579.56
2023-03-22T05:33:50.587Z,95573.38
2023-03-22T05:36:18.827Z,95563.72
2023-03-22T05:38:46.596Z,95559.91
2023-03-22T05:41:15.670Z,95562.00
2023-03-22T05:43:42.269Z,95562.44
2023-03-22T05:46:11.014Z,95557.78
2023-03-22T05:48:39.126Z,95554.56
2023-03-22T05:51:07.483Z,95554.41
2023-03-22T05:53:35.922Z,95544.72
2023-03-22T05:56:02.781Z,95546.22
2023-03-22T05:58:30.906Z,95554.13
2023-03-22T06:01:04.995Z,95546.50
2023-03-22T06:03:31.796Z,95546.78
2023-03-22T06:05:58.521Z,95550.44
2023-03-22T06:08:26.613Z,95554.56
2023-03-22T06:10:53.803Z,95543.66
2023-03-22T06:13:21.610Z,95540.28
2023-03-22T06:15:48.264Z,95551.59
2023-03-22T06:18:16.258Z,95536.75
2023-03-22T06:20:43.271Z,95528.22
2023-03-22T06:23:10.008Z,95533.03
2023-03-22T06:25:37.074Z,95533.63
2023-03-22T06:28:03.841Z,95518.22
2023-03-22T06:30:30.861Z,95515.16
2023-03-22T06:33:00.610Z,95523.06
2023-03-22T06:35:27.816Z,95514.97
2023-03-22T06:37:54.496Z,95510.75
2023-03-22T06:40:22.337Z,95501.03
2023-03-22T06:42:49.517Z,95488.75
2023-03-22T06:45:16.802Z,95489.84
2023-03-22T06:47:44.402Z,95462.50
2023-03-22T06:50:11.271Z,95464.06
2023-03-22T06:52:38.077Z,95464.00
2023-03-22T06:55:05.032Z,95451.16
2023-03-22T06:57:31.631Z,95457.44
2023-03-22T06:59:58.309Z,95448.59
2023-03-22T07:02:24.997Z,95456.66
2023-03-22T07:04:51.644Z,95458.63
2023-03-22T07:07:18.349Z,95437.38
2023-03-22T07:09:44.949Z,95440.88
2023-03-22T07:12:11.607Z,95450.78
2023-03-22T07:14:39.952Z,95444.81
2023-03-22T07:17:06.579Z,95450.25
2023-03-22T07:19:33.521Z,95472.81
2023-03-22T07:22:00.795Z,95471.00
2023-03-22T07:24:27.398Z,95468.13
2023-03-22T07:26:54.025Z,95492.94
2023-03-22T07:29:22.064Z,95498.66
2023-03-22T07:31:48.770Z,95487.75
2023-03-22T07:34:17.562Z,95498.84
2023-03-22T07:36:44.157Z,95504.53
2023-03-22T07:39:12.408Z,95490.50
2023-03-22T07:41:41.297Z,95491.75
2023-03-22T07:44:17.281Z,95491.75
2023-03-22T07:46:44.551Z,95481.78
2023-03-22T07:49:11.621Z,95467.84
2023-03-22T07:51:38.656Z,95475.44
2023-03-22T07:54:07.788Z,95473.94
2023-03-22T07:56:34.952Z,95457.28
2023-03-22T07:59:01.689Z,95476.38
2023-03-22T08:01:28.466Z,95471.00
2023-03-22T08:03:55.266Z,95459.28
2023-03-22T08:06:21.953Z,95469.16
2023-03-22T08:08:48.609Z,95464.88
2023-03-22T08:11:15.667Z,95456.66
2023-03-22T08:13:43.636Z,95468.44
2023-03-22T08:16:11.843Z,95453.03
2023-03-22T08:18:38.543Z,95428.28
2023-03-22T08:21:05.427Z,95427.47
2023-03-22T08:23:41.269Z,95431.16
2023-03-22T08:26:08.901Z,95414.13
2023-03-22T08:28:35.654Z,95408.31
2023-03-22T08:31:02.686Z,95392.88
2023-03-22T08:33:29.334Z,95370.81
2023-03-22T08:36:07.632Z,95371.50
2023-03-22T08:38:34.281Z,95342.66
2023-03-22T08:41:00.973Z,95322.53
2023-03-22T08:43:29.202Z,95314.75
2023-03-22T08:45:56.073Z,95304.00
2023-03-22T08:48:23.597Z,95281.75
2023-03-22T08:50:50.633Z,95260.25
2023-03-22T08:53:17.366Z,95233.03
2023-03-22T08:55:44.948Z,95211.97
2023-03-22T08:58:21.098Z,95205.13
2023-03-22T09:00:49.950Z,95201.34
2023-03-22T09:03:17.362Z,95203.56
2023-03-22T09:05:44.168Z,95191.28
2023-03-22T09:08:18.366Z,95172.88
2023-03-22T09:10:51.244Z,95140.72
2023-03-22T09:13:19.363Z,95146.06
2023-03-22T09:15:46.079Z,95137.19
2023-03-22T09:18:14.756Z,95111.50
2023-03-22T09:20:41.704Z,95081.59
2023-03-22T09:23:08.572Z,95087.34
2023-03-22T09:25:35.376Z,95079.66
2023-03-22T09:28:02.447Z,95063.13
2023-03-22T09:30:30.965Z,95033.22
2023-03-22T09:32:57.604Z,95029.38
2023-03-22T09:35:24.403Z,95010.16
2023-03-22T09:37:53.453Z,94999.41
2023-03-22T09:40:21.910Z,94972.53
2023-03-22T09:42:52.235Z,94944.84
2023-03-22T09:45:26.507Z,94915.22
2023-03-22T09:47:56.239Z,94917.16
2023-03-22T09:50:26.348Z,94914.47
2023-03-22T09:52:53.849Z,94896.38
2023-03-22T09:55:30.550Z,94866.34
2023-03-22T09:58:06.966Z,94872.44
2023-03-22T10:00:44.017Z,94867.06
2023-03-22T10:03:25.392Z,94853.19
2023-03-22T10:06:24.442Z,94838.50
2023-03-22T10:08:57.440Z,94825.75
2023-03-22T10:12:01.655Z,94851.06
2023-03-22T10:14:35.918Z,94846.81
2023-03-22T10:17:08.673Z,94842.94
2023-03-22T10:20:08.409Z,94826.69
2023-03-22T10:22:40.776Z,94835.16
2023-03-22T10:25:09.557Z,94832.81
2023-03-22T10:27:37.729Z,94817.69
2023-03-22T10:30:10.516Z,94811.38
2023-03-22T10:32:57.617Z,94820.19
2023-03-22T10:35:26.956Z,94836.44
2023-03-22T10:37:56.217Z,94830.97
2023-03-22T10:40:29.644Z,94847.94
2023-03-22T10:43:00.098Z,94864.56
2023-03-22T10:45:28.282Z,94873.41
2023-03-22T10:48:37.561Z,94892.69
2023-03-22T10:51:04.431Z,94904.59
2023-03-22T10:53:45.714Z,94901.72
2023-03-22T10:56:16.100Z,94932.25
2023-03-22T10:58:44.501Z,94959.28
2023-03-22T11:01:17.258Z,94954.28
2023-03-22T11:03:45.186Z,94944.22
2023-03-22T11:06:14.608Z,94937.19
2023-03-22T11:08:51.373Z,94926.25
2023-03-22T11:11:39.905Z,94961.06
2023-03-22T11:14:13.288Z,94980.75
2023-03-22T11:16:52.260Z,95002.69
2023-03-22T11:19:26.337Z,95001.84
2023-03-22T11:21:57.502Z,95000.94
2023-03-22T11:24:30.214Z,95022.63
2023-03-22T11:27:19.654Z,95018.75
2023-03-22T11:29:49.811Z,95010.94
2023-03-22T11:32:25.453Z,95012.31
2023-03-22T11:35:01.451Z,95035.47
2023-03-22T11:37:28.356Z,95043.78
2023-03-22T11:40:01.930Z,95080.16
2023-03-22T11:42:29.068Z,95128.84
2023-03-22T11:44:57.167Z,95125.56
2023-03-22T11:47:28.333Z,95167.38
2023-03-22T11:49:58.686Z,95181.66
2023-03-22T11:52:27.563Z,95175.72
2023-03-22T11:54:55.902Z,95191.19
2023-03-22T11:57:31.519Z,95179.09
2023-03-22T12:00:15.698Z,95197.25
2023-03-22T12:02:50.307Z,95219.75
2023-03-22T12:05:19.835Z,95213.19
2023-03-22T12:07:51.231Z,95231.34
2023-03-22T12:10:31.811Z,95219.75
2023-03-22T12:13:05.671Z,95211.91
2023-03-22T12:15:40.010Z,95235.94
2023-03-22T12:18:20.720Z,95291.59
2023-03-22T12:20:55.317Z,95296.25
2023-03-22T12:23:27.564Z,95294.75
2023-03-22T12:26:01.738Z,95284.66
2023-03-22T12:28:35.947Z,95297.44
2023-03-22T12:31:04.622Z,95301.72
2023-03-22T12:33:38.400Z,95279.72
2023-03-22T12:36:07.062Z,95239.97
2023-03-22T12:38:58.535Z,95218.28
2023-03-22T12:41:32.940Z,95229.94
2023-03-22T12:44:04.054Z,95234.97
2023-03-22T12:46:40.101Z,95214.91
2023-03-22T12:49:19.413Z,95207.44
2023-03-22T12:51:51.584Z,95240.31
2023-03-22T12:54:23.088Z,95250.41
2023-03-22T12:56:50.964Z,95249.25
2023-03-22T12:59:20.923Z,95236.16
2023-03-22T13:01:57.853Z,95221.41
2023-03-22T13:04:38.105Z,95243.84
2023-03-22T13:07:13.796Z,95240.00
2023-03-22T13:09:49.065Z,95238.44
2023-03-22T13:12:16.448Z,95234.59
2023-03-22T13:14:52.025Z,95218.28
2023-03-22T13:17:24.987Z,95253.09
2023-03-22T13:19:52.129Z,95258.91
2023-03-22T13:22:49.257Z,95246.22
2023-03-22T13:25:23.725Z,95235.44
2023-03-22T13:27:54.822Z,95203.72
2023-03-22T13:30:25.766Z,95211.84
2023-03-22T13:33:03.846Z,95229.28
2023-03-22T13:35:47.166Z,95206.91
2023-03-22T13:38:28.894Z,95192.19
2023-03-22T13:41:34.699Z,95199.09
2023-03-22T13:44:30.675Z,95207.59
2023-03-22T13:47:00.744Z,95194.81
2023-03-22T13:49:48.134Z,95210.31
2023-03-22T13:52:27.523Z,95205.38
2023-03-22T13:54:58.735Z,95172.22
2023-03-22T13:57:48.036Z,95143.19
2023-03-22T14:00:41.071Z,95149.78
2023-03-22T14:03:20.643Z,95132.88
2023-03-22T14:05:49.651Z,95126.75
2023-03-22T14:08:23.340Z,95103.50
2023-03-22T14:10:56.619Z,95109.69
2023-03-22T14:13:33.101Z,95106.69
2023-03-22T14:16:09.031Z,95084.22
2023-03-22T14:18:39.459Z,95099.66
2023-03-22T14:21:09.457Z,95110.53
